createdAt,value
2023-04-25T00:01:10.482Z,58.33
2023-04-25T00:03:40.611Z,58.46
2023-04-25T00:06:10.534Z,58.66
2023-04-25T00:08:39.884Z,58.77
2023-04-25T00:11:08.480Z,58.84
2023-04-25T00:13:37.848Z,58.85
2023-04-25T00:16:07.568Z,59.18
2023-04-25T00:18:37.359Z,59.20
2023-04-25T00:21:07.331Z,59.28
2023-04-25T00:23:38.838Z,59.39
2023-04-25T00:26:07.245Z,59.28
2023-04-25T00:28:36.655Z,59.51
2023-04-25T00:31:05.977Z,59.75
2023-04-25T00:33:35.778Z,60.03
2023-04-25T00:36:04.990Z,60.08
2023-04-25T00:38:33.330Z,60.29
2023-04-25T00:41:04.078Z,60.47
2023-04-25T00:43:34.831Z,60.64
2023-04-25T00:46:05.030Z,60.63
2023-04-25T00:48:34.058Z,60.65
2023-04-25T00:51:02.516Z,60.62
2023-04-25T00:53:34.838Z,60.70
2023-04-25T00:56:05.054Z,60.78
2023-04-25T00:58:34.678Z,60.66
2023-04-25T01:01:03.266Z,60.64
2023-04-25T01:03:37.708Z,60.64
2023-04-25T01:06:06.778Z,60.66
2023-04-25T01:08:36.040Z,60.83
2023-04-25T01:11:06.814Z,60.58
2023-04-25T01:13:36.814Z,60.70
2023-04-25T01:16:07.019Z,60.73
2023-04-25T01:18:36.531Z,60.84
2023-04-25T01:21:10.280Z,60.77
2023-04-25T01:23:40.358Z,61.08
2023-04-25T01:26:11.617Z,60.98
2023-04-25T01:28:42.253Z,61.27
2023-04-25T01:31:11.745Z,61.22
2023-04-25T01:33:41.413Z,60.82
2023-04-25T01:36:11.715Z,60.88
2023-04-25T01:38:41.654Z,60.66
2023-04-25T01:41:10.295Z,60.67
2023-04-25T01:43:40.645Z,60.60
2023-04-25T01:46:09.161Z,60.69
2023-04-25T01:48:37.965Z,60.68
2023-04-25T01:51:09.139Z,60.42
2023-04-25T01:53:40.689Z,60.23
2023-04-25T01:56:09.359Z,60.40
2023-04-25T01:58:38.614Z,60.49
2023-04-25T02:01:23.209Z,60.08
2023-04-25T02:04:09.687Z,60.61
2023-04-25T02:06:40.545Z,60.40
2023-04-25T02:09:11.559Z,60.54
2023-04-25T02:11:44.853Z,60.60
2023-04-25T02:14:32.673Z,60.68
2023-04-25T02:17:22.609Z,60.57
2023-04-25T02:19:51.220Z,60.78
2023-04-25T02:22:20.104Z,60.85
2023-04-25T02:24:49.893Z,60.89
2023-04-25T02:27:18.354Z,60.96
2023-04-25T02:29:46.746Z,61.22
2023-04-25T02:32:15.478Z,61.36
2023-04-25T02:34:43.854Z,61.53
2023-04-25T02:37:12.738Z,61.50
2023-04-25T02:39:41.262Z,61.55
2023-04-25T02:42:11.166Z,61.48
2023-04-25T02:44:40.736Z,61.87
2023-04-25T02:47:09.813Z,61.86
2023-04-25T02:49:38.238Z,62.07
2023-04-25T02:52:07.157Z,62.00
2023-04-25T02:54:36.184Z,62.01
2023-04-25T02:57:05.293Z,62.22
2023-04-25T02:59:40.068Z,62.41
2023-04-25T03:02:08.402Z,62.37
2023-04-25T03:04:38.538Z,62.46
2023-04-25T03:07:06.988Z,62.70
2023-04-25T03:09:35.743Z,62.73
2023-04-25T03:12:06.008Z,62.85
2023-04-25T03:14:35.645Z,62.84
2023-04-25T03:17:06.077Z,62.83
2023-04-25T03:19:37.208Z,63.01
2023-04-25T03:22:07.295Z,63.27
2023-04-25T03:24:36.103Z,63.23
2023-04-25T03:27:05.518Z,63.37
2023-04-25T03:29:33.922Z,63.14
2023-04-25T03:32:07.984Z,63.49
2023-04-25T03:34:36.498Z,63.25
2023-04-25T03:37:05.619Z,63.25
2023-04-25T03:39:38.978Z,63.41
2023-04-25T03:42:08.708Z,63.48
2023-04-25T03:44:38.603Z,63.62
2023-04-25T03:47:08.457Z,63.74
2023-04-25T03:49:37.820Z,63.85
2023-04-25T03:52:08.897Z,63.92
2023-04-25T03:54:40.867Z,63.99
2023-04-25T03:57:13.990Z,64.01
2023-04-25T03:59:42.818Z,64.07
2023-04-25T04:02:15.466Z,64.13
2023-04-25T04:04:45.708Z,64.22
2023-04-25T04:07:15.004Z,64.21
2023-04-25T04:09:47.032Z,64.32
2023-04-25T04:12:22.122Z,64.30
2023-04-25T04:14:51.149Z,64.44
2023-04-25T04:17:21.300Z,64.42
2023-04-25T04:19:50.966Z,64.30
2023-04-25T04:22:23.158Z,64.16
2023-04-25T04:24:53.786Z,64.20
2023-04-25T04:27:30.794Z,64.30
2023-04-25T04:30:16.833Z,64.30
2023-04-25T04:32:59.962Z,64.33
2023-04-25T04:35:28.833Z,64.56
2023-04-25T04:37:57.391Z,64.41
2023-04-25T04:40:28.758Z,64.80
2023-04-25T04:43:07.718Z,64.95
2023-04-25T04:45:57.118Z,65.01
2023-04-25T04:48:41.109Z,64.83
2023-04-25T04:51:38.899Z,64.96
2023-04-25T04:54:34.679Z,65.12
2023-04-25T04:57:29.409Z,64.87
2023-04-25T05:00:08.975Z,64.84
2023-04-25T05:03:14.027Z,64.80
2023-04-25T05:06:04.926Z,64.94
2023-04-25T05:08:51.597Z,64.77
2023-04-25T05:11:24.800Z,64.95
2023-04-25T05:13:59.470Z,65.03
2023-04-25T05:17:05.726Z,64.75
2023-04-25T05:19:45.256Z,65.04
2023-04-25T05:22:28.700Z,64.92
2023-04-25T05:25:10.894Z,65.01
2023-04-25T05:27:59.493Z,64.92
2023-04-25T05:30:42.675Z,64.91
2023-04-25T05:33:20.395Z,65.20
2023-04-25T05:35:48.952Z,65.14
2023-04-25T05:38:19.199Z,65.08
2023-04-25T05:41:08.389Z,65.32
2023-04-25T05:43:50.934Z,65.29
2023-04-25T05:46:49.438Z,65.17
2023-04-25T05:49:33.010Z,65.23
2023-04-25T05:52:22.613Z,65.30
2023-04-25T05:55:01.468Z,65.26
2023-04-25T05:57:32.519Z,65.04
2023-04-25T06:00:01.678Z,65.26
2023-04-25T06:02:43.083Z,64.79
2023-04-25T06:05:13.775Z,64.88
2023-04-25T06:07:42.875Z,64.56
2023-04-25T06:10:12.766Z,64.67
2023-04-25T06:12:41.911Z,64.48
2023-04-25T06:15:24.250Z,64.55
2023-04-25T06:17:56.821Z,64.45
2023-04-25T06:20:25.615Z,64.47
2023-04-25T06:22:56.681Z,64.19
2023-04-25T06:25:38.541Z,64.01
2023-04-25T06:28:07.786Z,63.54
2023-04-25T06:30:36.490Z,63.79
2023-04-25T06:33:11.886Z,63.62
2023-04-25T06:35:41.425Z,63.09
2023-04-25T06:38:13.470Z,63.27
2023-04-25T06:40:47.491Z,62.93
2023-04-25T06:43:16.246Z,63.08
2023-04-25T06:45:48.661Z,62.98
2023-04-25T06:48:18.114Z,62.64
2023-04-25T06:50:47.193Z,62.86
2023-04-25T06:53:15.862Z,62.45
2023-04-25T06:55:49.573Z,62.32
2023-04-25T06:58:20.872Z,62.61
2023-04-25T07:01:02.548Z,62.92
2023-04-25T07:03:32.577Z,63.08
2023-04-25T07:06:06.272Z,63.53
2023-04-25T07:08:35.866Z,63.47
2023-04-25T07:11:05.876Z,63.38
2023-04-25T07:13:35.162Z,63.85
2023-04-25T07:16:04.177Z,63.45
2023-04-25T07:18:34.275Z,63.41
2023-04-25T07:21:03.582Z,63.40
2023-04-25T07:23:34.330Z,63.39
2023-04-25T07:26:09.520Z,63.22
2023-04-25T07:28:40.205Z,62.84
2023-04-25T07:31:10.513Z,62.94
2023-04-25T07:33:38.870Z,62.71
2023-04-25T07:36:09.168Z,62.04
2023-04-25T07:38:37.704Z,61.91
2023-04-25T07:41:08.274Z,61.73
2023-04-25T07:43:40.372Z,61.67
2023-04-25T07:46:09.758Z,60.96
2023-04-25T07:48:39.201Z,61.19
2023-04-25T07:51:08.804Z,61.23
2023-04-25T07:53:39.669Z,61.17
2023-04-25T07:56:14.538Z,60.87
2023-04-25T07:58:47.305Z,61.16
2023-04-25T08:01:17.781Z,61.17
2023-04-25T08:03:55.208Z,61.20
2023-04-25T08:06:37.299Z,61.36
2023-04-25T08:09:17.079Z,61.25
2023-04-25T08:11:47.625Z,61.40
2023-04-25T08:14:18.852Z,61.24
2023-04-25T08:16:48.918Z,61.04
2023-04-25T08:19:20.722Z,61.51
2023-04-25T08:21:52.071Z,61.33
2023-04-25T08:24:26.905Z,61.04
2023-04-25T08:26:57.331Z,61.06
2023-04-25T08:29:29.951Z,61.07
2023-04-25T08:31:58.379Z,60.46
2023-04-25T08:34:27.934Z,60.33
2023-04-25T08:37:01.159Z,59.98
2023-04-25T08:39:43.482Z,59.83
2023-04-25T08:42:35.151Z,59.17
2023-04-25T08:45:07.293Z,59.25
2023-04-25T08:47:42.594Z,59.27
2023-04-25T08:50:11.962Z,59.28
2023-04-25T08:52:47.079Z,58.65
2023-04-25T08:55:17.725Z,57.93
2023-04-25T08:57:49.004Z,57.94
2023-04-25T09:00:20.702Z,56.92
2023-04-25T09:02:50.146Z,56.21
2023-04-25T09:05:21.779Z,55.93
2023-04-25T09:07:54.546Z,55.74
2023-04-25T09:10:22.967Z,55.69
2023-04-25T09:13:07.159Z,55.20
2023-04-25T09:15:53.102Z,55.86
2023-04-25T09:18:49.066Z,55.37
2023-04-25T09:21:18.616Z,55.21
2023-04-25T09:23:53.294Z,54.81
2023-04-25T09:26:24.572Z,55.09
2023-04-25T09:29:08.490Z,55.38
2023-04-25T09:31:40.575Z,55.18
2023-04-25T09:34:17.021Z,55.16
2023-04-25T09:36:51.714Z,55.24
2023-04-25T09:39:40.574Z,55.76
2023-04-25T09:42:16.826Z,55.77
2023-04-25T09:44:48.652Z,55.23
2023-04-25T09:47:18.829Z,55.30
2023-04-25T09:49:48.031Z,54.81
2023-04-25T09:52:18.328Z,54.34
2023-04-25T09:55:10.924Z,53.96
2023-04-25T09:57:40.763Z,53.89
2023-04-25T10:00:13.950Z,53.99
2023-04-25T10:02:50.090Z,53.66
2023-04-25T10:05:38.680Z,54.23
2023-04-25T10:08:10.113Z,54.07
2023-04-25T10:10:40.217Z,54.42
2023-04-25T10:13:09.238Z,54.78
2023-04-25T10:15:40.407Z,54.28
2023-04-25T10:18:10.788Z,53.34
2023-04-25T10:20:39.336Z,53.04
2023-04-25T10:23:14.463Z,52.54
2023-04-25T10:25:43.970Z,52.97
2023-04-25T10:28:12.709Z,53.15
2023-04-25T10:30:59.413Z,52.37
2023-04-25T10:33:34.619Z,51.84
2023-04-25T10:36:11.829Z,50.29
2023-04-25T10:38:41.308Z,49.76
2023-04-25T10:41:12.378Z,49.54
2023-04-25T10:43:42.516Z,48.16
2023-04-25T10:46:25.658Z,48.22
2023-04-25T10:48:55.610Z,48.25
2023-04-25T10:51:30.774Z,48.52
2023-04-25T10:54:02.823Z,49.35
2023-04-25T10:56:33.550Z,49.71
2023-04-25T10:59:12.297Z,50.26
2023-04-25T11:01:45.567Z,50.30
2023-04-25T11:04:24.172Z,49.96
2023-04-25T11:07:12.951Z,49.59
2023-04-25T11:09:42.457Z,49.16
2023-04-25T11:12:12.874Z,48.96
2023-04-25T11:14:42.151Z,48.72
2023-04-25T11:17:12.827Z,48.70
2023-04-25T11:19:41.563Z,48.46
2023-04-25T11:22:12.583Z,48.35
2023-04-25T11:24:41.048Z,48.55
2023-04-25T11:27:09.932Z,48.46
2023-04-25T11:29:38.298Z,48.41
2023-04-25T11:32:07.596Z,48.22
2023-04-25T11:34:37.784Z,48.22
2023-04-25T11:37:07.720Z,48.40
2023-04-25T11:39:36.662Z,48.56
2023-04-25T11:42:13.935Z,48.82
2023-04-25T11:44:43.267Z,49.05
2023-04-25T11:47:12.577Z,48.95
2023-04-25T11:49:42.520Z,48.65
2023-04-25T11:52:12.161Z,48.43
2023-04-25T11:54:40.968Z,48.49
2023-04-25T11:57:10.164Z,48.01
2023-04-25T11:59:38.596Z,47.72
2023-04-25T12:02:08.488Z,47.59
2023-04-25T12:04:37.473Z,47.55
2023-04-25T12:07:12.123Z,47.50
2023-04-25T12:09:41.497Z,47.48
2023-04-25T12:12:12.502Z,47.48
2023-04-25T12:14:40.945Z,47.68
2023-04-25T12:17:11.155Z,48.05
2023-04-25T12:19:42.105Z,48.01
2023-04-25T12:22:23.809Z,47.95
2023-04-25T12:24:54.299Z,47.75
2023-04-25T12:27:23.916Z,47.82
2023-04-25T12:29:53.698Z,47.63
2023-04-25T12:32:23.115Z,47.16
2023-04-25T12:34:51.757Z,46.62
2023-04-25T12:37:20.192Z,46.38
2023-04-25T12:39:50.322Z,46.44
2023-04-25T12:42:18.696Z,45.92
2023-04-25T12:44:47.607Z,45.83
2023-04-25T12:47:16.284Z,45.80
2023-04-25T12:49:47.030Z,45.70
2023-04-25T12:52:15.398Z,45.70
2023-04-25T12:54:44.924Z,45.49
2023-04-25T12:57:14.680Z,45.25
2023-04-25T12:59:44.504Z,45.34
2023-04-25T13:02:13.634Z,44.88
2023-04-25T13:04:42.923Z,45.11
2023-04-25T13:07:11.646Z,45.00
2023-04-25T13:09:40.520Z,45.01
2023-04-25T13:12:09.602Z,44.88
2023-04-25T13:14:39.345Z,45.18
2023-04-25T13:17:08.980Z,45.76
2023-04-25T13:19:37.863Z,46.12
2023-04-25T13:22:07.178Z,46.20
2023-04-25T13:24:36.078Z,46.50
2023-04-25T13:27:05.488Z,46.66
2023-04-25T13:29:36.242Z,46.77
2023-04-25T13:32:06.770Z,47.31
2023-04-25T13:34:35.379Z,47.35
2023-04-25T13:37:04.202Z,47.59
2023-04-25T13:39:33.640Z,48.21
2023-04-25T13:42:02.851Z,49.16
2023-04-25T13:44:31.684Z,49.72
2023-04-25T13:47:01.714Z,50.38
2023-04-25T13:49:33.265Z,51.35
2023-04-25T13:52:01.943Z,51.72
2023-04-25T13:54:31.208Z,52.17
2023-04-25T13:57:01.043Z,51.89
2023-04-25T13:59:30.025Z,52.71
2023-04-25T14:01:58.478Z,53.59
2023-04-25T14:04:28.624Z,53.87
2023-04-25T14:06:58.485Z,54.23
2023-04-25T14:09:28.296Z,55.34
2023-04-25T14:11:57.404Z,55.70
2023-04-25T14:14:26.030Z,56.13
2023-04-25T14:16:55.214Z,56.65
2023-04-25T14:19:24.256Z,57.09
2023-04-25T14:21:52.651Z,57.06
2023-04-25T14:24:22.836Z,57.80
2023-04-25T14:26:51.256Z,57.77
2023-04-25T14:29:19.768Z,58.03
2023-04-25T14:31:48.480Z,58.63
2023-04-25T14:34:17.428Z,58.46
2023-04-25T14:36:46.145Z,58.79
2023-04-25T14:39:15.760Z,59.35
2023-04-25T14:41:45.491Z,59.27
2023-04-25T14:44:14.418Z,59.68
2023-04-25T14:46:43.044Z,59.84
2023-04-25T14:49:11.599Z,60.31
2023-04-25T14:51:39.962Z,60.12
2023-04-25T14:54:08.684Z,60.55
2023-04-25T14:56:37.578Z,60.58
2023-04-25T14:59:07.682Z,60.53
2023-04-25T15:01:37.520Z,61.03
2023-04-25T15:04:06.264Z,61.17
2023-04-25T15:06:36.121Z,61.07
2023-04-25T15:09:04.937Z,61.49
2023-04-25T15:11:34.268Z,61.69
2023-04-25T15:14:02.787Z,61.96
2023-04-25T15:16:33.208Z,62.21
2023-04-25T15:19:05.007Z,62.58
2023-04-25T15:21:33.651Z,62.48
2023-04-25T15:24:02.954Z,62.72
2023-04-25T15:26:31.388Z,63.18
2023-04-25T15:28:59.970Z,63.25
2023-04-25T15:31:28.431Z,62.85
2023-04-25T15:33:59.000Z,62.67
2023-04-25T15:36:27.724Z,62.75
2023-04-25T15:38:57.164Z,62.46
2023-04-25T15:41:26.410Z,62.75
2023-04-25T15:43:55.393Z,62.59
2023-04-25T15:46:24.335Z,62.46
2023-04-25T15:48:52.943Z,62.38
2023-04-25T15:51:23.808Z,62.34
2023-04-25T15:53:52.362Z,62.23
2023-04-25T15:56:21.678Z,62.56
2023-04-25T15:58:50.589Z,62.50
2023-04-25T16:01:19.246Z,62.55
2023-04-25T16:03:47.795Z,62.69
2023-04-25T16:06:16.882Z,62.67
2023-04-25T16:08:46.799Z,62.88
2023-04-25T16:11:15.257Z,62.82
2023-04-25T16:13:43.894Z,62.76
2023-04-25T16:16:12.281Z,62.72
2023-04-25T16:18:40.922Z,62.54
2023-04-25T16:21:09.295Z,61.92
2023-04-25T16:23:38.113Z,61.45
2023-04-25T16:26:08.876Z,60.46
2023-04-25T16:28:37.304Z,60.00
2023-04-25T16:31:07.066Z,59.69
2023-04-25T16:33:35.883Z,59.06
2023-04-25T16:36:06.178Z,58.75
2023-04-25T16:38:34.807Z,58.48
2023-04-25T16:41:03.153Z,58.17
2023-04-25T16:43:33.066Z,58.04
2023-04-25T16:46:01.564Z,57.75
2023-04-25T16:48:31.366Z,58.12
2023-04-25T16:51:00.139Z,57.71
2023-04-25T16:53:28.774Z,57.93
2023-04-25T16:55:57.539Z,58.21
2023-04-25T16:58:27.184Z,58.57
2023-04-25T17:00:58.133Z,58.73
2023-04-25T17:03:27.046Z,58.82
2023-04-25T17:05:58.079Z,58.96
2023-04-25T17:08:26.509Z,59.29
2023-04-25T17:10:55.729Z,59.61
2023-04-25T17:13:30.497Z,59.39
2023-04-25T17:16:02.097Z,59.45
2023-04-25T17:18:30.507Z,59.62
2023-04-25T17:20:59.445Z,59.95
2023-04-25T17:23:27.945Z,59.97
2023-04-25T17:25:57.109Z,60.18
2023-04-25T17:28:25.719Z,60.34
2023-04-25T17:30:54.839Z,60.25
2023-04-25T17:33:27.118Z,60.75
2023-04-25T17:35:56.158Z,61.00
2023-04-25T17:38:25.214Z,60.90
2023-04-25T17:40:53.637Z,61.28
2023-04-25T17:43:22.643Z,61.24
2023-04-25T17:45:51.158Z,61.36
2023-04-25T17:48:22.511Z,61.98
2023-04-25T17:50:52.346Z,61.65
2023-04-25T17:53:21.236Z,61.95
2023-04-25T17:55:50.972Z,62.09
2023-04-25T17:58:19.378Z,61.84
2023-04-25T18:00:48.910Z,62.20
2023-04-25T18:03:17.490Z,62.13
2023-04-25T18:05:45.971Z,62.37
2023-04-25T18:08:16.206Z,62.37
2023-04-25T18:10:45.304Z,62.74
2023-04-25T18:13:14.678Z,62.56
2023-04-25T18:15:43.142Z,62.84
2023-04-25T18:18:20.026Z,62.63
2023-04-25T18:20:48.425Z,62.98
2023-04-25T18:23:18.449Z,63.07
2023-04-25T18:25:46.917Z,63.04
2023-04-25T18:28:15.653Z,63.18
2023-04-25T18:30:44.478Z,63.29
2023-04-25T18:33:14.146Z,63.23
2023-04-25T18:35:51.505Z,63.53
2023-04-25T18:38:35.528Z,63.60
2023-04-25T18:41:15.588Z,63.94
2023-04-25T18:43:53.454Z,64.22
2023-04-25T18:46:23.490Z,64.42
2023-04-25T18:48:54.135Z,64.59
2023-04-25T18:51:24.289Z,64.69
2023-04-25T18:53:54.043Z,64.67
2023-04-25T18:56:24.896Z,64.53
2023-04-25T18:58:53.851Z,64.63
2023-04-25T19:01:23.553Z,64.51
2023-04-25T19:03:55.786Z,64.71
2023-04-25T19:06:28.036Z,64.61
2023-04-25T19:08:58.092Z,64.74
2023-04-25T19:11:27.238Z,64.83
2023-04-25T19:13:56.910Z,64.59
2023-04-25T19:16:26.774Z,64.75
2023-04-25T19:18:56.416Z,64.60
2023-04-25T19:21:24.827Z,64.79
2023-04-25T19:23:54.524Z,64.67
2023-04-25T19:26:25.209Z,64.73
2023-04-25T19:29:06.304Z,64.62
2023-04-25T19:31:35.594Z,64.79
2023-04-25T19:34:05.625Z,64.93
2023-04-25T19:36:34.365Z,65.09
2023-04-25T19:39:04.960Z,64.97
2023-04-25T19:41:36.275Z,64.83
2023-04-25T19:44:06.971Z,64.86
2023-04-25T19:46:37.440Z,64.95
2023-04-25T19:49:07.700Z,65.02
2023-04-25T19:51:37.789Z,65.05
2023-04-25T19:54:06.451Z,65.28
2023-04-25T19:56:37.022Z,65.08
2023-04-25T19:59:05.381Z,65.38
2023-04-25T20:01:34.413Z,65.11
2023-04-25T20:04:03.473Z,65.31
2023-04-25T20:06:32.742Z,65.62
2023-04-25T20:09:01.357Z,65.55
2023-04-25T20:11:30.260Z,65.62
2023-04-25T20:14:00.651Z,65.68
2023-04-25T20:16:29.077Z,65.74
2023-04-25T20:18:58.791Z,65.89
2023-04-25T20:21:27.425Z,65.90
2023-04-25T20:23:56.743Z,65.75
2023-04-25T20:26:25.825Z,65.76
2023-04-25T20:28:55.648Z,66.04
2023-04-25T20:31:25.604Z,65.99
2023-04-25T20:33:54.722Z,65.91
2023-04-25T20:36:23.143Z,65.80
2023-04-25T20:38:52.058Z,65.90
2023-04-25T20:41:21.345Z,66.05
2023-04-25T20:43:52.847Z,66.07
2023-04-25T20:46:21.527Z,66.18
2023-04-25T20:48:52.795Z,66.10
2023-04-25T20:51:23.257Z,66.21
2023-04-25T20:53:52.003Z,66.51
2023-04-25T20:56:21.252Z,66.52
2023-04-25T20:58:50.187Z,66.30
2023-04-25T21:01:19.011Z,66.51
2023-04-25T21:03:50.576Z,66.57
2023-04-25T21:06:20.954Z,66.62
2023-04-25T21:11:37.298Z,66.51
2023-04-25T21:14:06.347Z,66.55
2023-04-25T21:16:35.627Z,66.47
2023-04-25T21:19:05.233Z,66.79
2023-04-25T21:21:35.120Z,66.65
2023-04-25T21:24:04.413Z,66.65
2023-04-25T21:26:32.774Z,66.74
2023-04-25T21:29:02.497Z,66.74
2023-04-25T21:31:30.984Z,66.80
2023-04-25T21:34:00.262Z,66.65
2023-04-25T21:36:29.601Z,66.75
2023-04-25T21:39:00.483Z,66.68
2023-04-25T21:41:28.848Z,66.66
2023-04-25T21:43:58.060Z,66.54
2023-04-25T21:46:27.510Z,66.73
2023-04-25T21:48:56.090Z,66.27
2023-04-25T21:51:27.429Z,66.44
2023-04-25T21:53:55.912Z,66.33
2023-04-25T21:56:26.508Z,66.43
2023-04-25T21:58:55.163Z,66.18
2023-04-25T22:01:24.818Z,66.46
2023-04-25T22:03:53.427Z,66.39
2023-04-25T22:06:22.568Z,66.63
2023-04-25T22:08:51.167Z,66.59
2023-04-25T22:11:24.246Z,66.40
2023-04-25T22:13:54.495Z,66.54
2023-04-25T22:16:23.599Z,66.47
2023-04-25T22:18:53.273Z,66.51
2023-04-25T22:21:24.431Z,66.60
2023-04-25T22:23:53.580Z,66.84
2023-04-25T22:26:22.004Z,66.99
2023-04-25T22:28:51.912Z,66.93
2023-04-25T22:31:21.854Z,67.19
2023-04-25T22:33:52.425Z,67.30
2023-04-25T22:36:21.979Z,67.41
2023-04-25T22:38:51.196Z,67.48
2023-04-25T22:41:20.117Z,67.19
2023-04-25T22:43:48.853Z,67.51
2023-04-25T22:46:18.180Z,67.71
2023-04-25T22:48:50.499Z,67.67
2023-04-25T22:51:19.116Z,67.85
2023-04-25T22:53:48.395Z,67.62
2023-04-25T22:56:17.666Z,67.64
2023-04-25T22:58:46.020Z,67.48
2023-04-25T23:01:18.958Z,67.44
2023-04-25T23:03:50.799Z,67.45
2023-04-25T23:06:19.992Z,67.25
2023-04-25T23:08:48.854Z,67.24
2023-04-25T23:11:17.258Z,66.99
2023-04-25T23:13:46.840Z,66.93
2023-04-25T23:16:15.273Z,66.88
2023-04-25T23:18:45.415Z,67.09
2023-04-25T23:21:16.192Z,66.92
2023-04-25T23:23:44.724Z,67.07
2023-04-25T23:26:14.084Z,67.04
2023-04-25T23:28:42.842Z,67.33
2023-04-25T23:31:12.934Z,67.57
2023-04-25T23:33:41.374Z,67.66
2023-04-25T23:36:21.607Z,68.05
2023-04-25T23:38:50.866Z,68.12
2023-04-25T23:41:19.409Z,68.27
2023-04-25T23:43:48.585Z,68.13
2023-04-25T23:46:17.266Z,67.95
2023-04-25T23:48:46.793Z,68.15
2023-04-25T23:51:15.252Z,68.48
2023-04-25T23:53:45.996Z,68.21
2023-04-25T23:56:15.068Z,68.22
2023-04-25T23:58:44.110Z,68.11
